To NAV CANADA Home Page Login to a new session Search on AWWS site Feedback and Comments Disclaimer Vers la page française équivalente Tips FAQ What's new on the site To the Forecasts and Observations / NOTAM section To "File a Flight Plan" website Publications and other links Update of the User's profile FIC Telephone Numbers My Weather Data Folder Route Weather Data Regional Weather Data Local Weather Data To the Forecasts and Observations / NOTAM section
Request Generated 04/21/2015 at 09:47:49 UTC . Weather information available at that time is displayed.

METAR/TAF

CALGARY/CALGARY INTL/AB    

METAR CYYC 210900Z 12002KT 15SM BKN074 10/00 A2986 RMK AC7 VIRGA
OVRHD SLP117 DENSITY ALT 3900FT=
METAR CYYC 210800Z CCA 00000KT 15SM BKN084 10/00 A2986 RMK AC7 VIRGA
OVRHD SLP118 DENSITY ALT 3900FT=
METAR CYYC 210800Z 00000KT 7SM BKN084 10/00 A2986 RMK AC7 VIRGA OVRHD
SLP118 DENSITY ALT 3900FT=
METAR CYYC 210700Z 24002KT 15SM BKN078 10/M00 A2986 RMK AC7 VIRGA
OVRHD SLP118 DENSITY ALT 3900FT=

TAF CYYC 210838Z 2109/2206 VRB03KT P6SM BKN080 TEMPO 2109/2114 P6SM
VCSH
FM211600 18005KT P6SM SCT110 SCT250
BECMG 2116/2118 15012KT
FM212100 15015KT P6SM SCT090 TEMPO 2123/2202 P6SM VCSH BKN090
FM220300 11005KT P6SM FEW090
BECMG 2204/2206 06005KT
RMK NXT FCST BY 211200Z=
Your time UTC time
Weather data provided by Environment Canada and NAV CANADA